Time;durP1;ratioP1;P1;durP2;ratioP2;P2;SDS_P1;SDS_P2;PMS_P1;PMS_P2;Temp;Humidity;BMP_temperature;BMP_pressure;BME280_temperature;BME280_humidity;BME280_pressure;Samples;Min_cycle;Max_cycle;Signal;HPM_P1;HPM_P2
2022/08/16 00:00:25;;;;;;;4.31;3.15;;;;;;;30.06;26.09;100196.47;446223;118;923326;-75
2022/08/16 00:01:28;;;;;;;3.36;3.04;;;;;;;30.05;26.16;100192.84;437949;121;923051;-73
2022/08/16 00:02:34;;;;;;;3.90;3.06;;;;;;;30.05;26.15;100192.84;438356;118;922830;-76
2022/08/16 00:03:37;;;;;;;6.11;3.24;;;;;;;30.05;26.08;100194.86;447555;118;922748;-75
2022/08/16 00:04:42;;;;;;;4.14;3.46;;;;;;;30.03;26.08;100191.58;447389;118;922660;-76
2022/08/16 00:05:45;;;;;;;6.42;2.75;;;;;;;30.03;26.04;100197.20;460684;115;922968;-74
2022/08/16 00:06:51;;;;;;;6.26;3.23;;;;;;;30.03;26.05;100188.77;461544;115;922767;-75
2022/08/16 00:07:55;;;;;;;4.47;2.92;;;;;;;30.02;26.06;100192.73;461674;115;922705;-76
2022/08/16 00:08:59;;;;;;;10.45;3.15;;;;;;;30.02;26.10;100192.73;461428;115;931490;-76
2022/08/16 00:10:05;;;;;;;7.08;2.94;;;;;;;30.02;26.12;100192.73;461770;114;922717;-75
2022/08/16 00:11:10;;;;;;;7.19;3.00;;;;;;;30.00;26.17;100187.46;461543;115;922747;-75
2022/08/16 00:12:15;;;;;;;4.89;3.23;;;;;;;29.99;26.21;100185.84;461695;113;922741;-77
2022/08/16 00:13:20;;;;;;;5.55;2.64;;;;;;;29.99;26.21;100190.66;461559;115;923017;-76
2022/08/16 00:14:27;;;;;;;8.71;2.56;;;;;;;29.98;26.25;100192.64;461723;115;922722;-75
2022/08/16 00:15:41;;;;;;;3.61;2.51;;;;;;;29.98;26.27;100187.02;455921;115;922701;-75
2022/08/16 00:16:47;;;;;;;6.33;2.74;;;;;;;29.98;26.28;100189.83;453407;116;922875;-75
2022/08/16 00:17:52;;;;;;;5.26;2.98;;;;;;;29.97;26.30;100185.38;452973;117;922818;-76
2022/08/16 00:18:58;;;;;;;3.97;2.61;;;;;;;29.97;26.34;100193.81;453534;116;922762;-76
2022/08/16 00:20:07;;;;;;;3.01;2.72;;;;;;;29.96;26.35;100186.55;453551;117;922716;-75
2022/08/16 00:21:10;;;;;;;5.59;3.22;;;;;;;29.95;26.33;100187.70;453452;116;922789;-76
2022/08/16 00:22:13;;;;;;;5.06;2.71;;;;;;;29.96;26.35;100188.53;453791;117;923266;-76
2022/08/16 00:23:18;;;;;;;8.71;2.71;;;;;;;29.95;26.30;100187.70;453567;117;923238;-75
2022/08/16 00:24:25;;;;;;;4.74;2.74;;;;;;;29.94;26.31;100180.44;453558;116;922796;-76
2022/08/16 00:25:30;;;;;;;8.28;3.09;;;;;;;29.94;26.34;100185.28;453516;116;923423;-75
2022/08/16 00:26:35;;;;;;;3.93;3.04;;;;;;;29.94;26.31;100183.25;453185;116;922665;-75
2022/08/16 00:27:40;;;;;;;8.47;3.44;;;;;;;29.94;26.29;100185.28;453552;116;922816;-75
2022/08/16 00:28:45;;;;;;;5.48;3.78;;;;;;;29.93;26.30;100184.45;453501;116;922725;-75
2022/08/16 00:29:49;;;;;;;9.34;3.98;;;;;;;29.92;26.33;100177.19;455050;116;922762;-74
2022/08/16 00:30:54;;;;;;;10.86;4.17;;;;;;;29.92;26.32;100179.17;456637;114;922741;-76
2022/08/16 00:32:01;;;;;;;9.09;4.24;;;;;;;29.92;26.37;100181.98;457071;115;922884;-75
2022/08/16 00:33:07;;;;;;;11.99;4.34;;;;;;;29.91;26.36;100169.92;456946;115;922693;-75
2022/08/16 00:34:11;;;;;;;5.91;4.37;;;;;;;29.92;26.37;100168.75;452233;114;922714;-76
2022/08/16 00:35:20;;;;;;;7.39;3.71;;;;;;;29.90;26.43;100176.71;448906;117;923520;-75
2022/08/16 00:36:24;;;;;;;6.69;3.54;;;;;;;29.91;26.48;100180.34;449316;116;923361;-75
2022/08/16 00:37:27;;;;;;;6.61;3.31;;;;;;;29.90;26.53;100173.90;448773;116;922959;-75
2022/08/16 00:38:32;;;;;;;5.93;2.68;;;;;;;29.89;26.58;100169.41;444187;118;922797;-75
2022/08/16 00:39:37;;;;;;;5.83;3.13;;;;;;;29.89;26.63;100172.22;445937;118;922921;-75
2022/08/16 00:40:45;;;;;;;3.17;2.81;;;;;;;29.88;26.66;100175.41;447402;118;922969;-75
2022/08/16 00:41:50;;;;;;;6.28;2.83;;;;;;;29.88;26.66;100170.61;446311;118;922702;-75
2022/08/16 00:42:53;;;;;;;4.62;2.69;;;;;;;29.86;26.70;100172.95;447430;118;922717;-74
2022/08/16 00:44:00;;;;;;;6.02;2.56;;;;;;;29.84;26.73;100173.30;447388;118;922727;-76
2022/08/16 00:45:27;;;;;;;4.80;2.28;;;;;;;29.85;26.79;100176.92;447254;118;922754;-74
2022/08/16 00:46:34;;;;;;;4.71;2.74;;;;;;;29.83;26.79;100173.63;447269;118;922814;-74
2022/08/16 00:47:41;;;;;;;3.26;2.21;;;;;;;29.82;26.78;100183.27;447301;118;922758;-74
2022/08/16 00:48:47;;;;;;;4.06;2.33;;;;;;;29.81;26.83;100187.25;446383;118;922649;-74
2022/08/16 00:49:52;;;;;;;6.75;2.76;;;;;;;29.80;26.81;100177.98;447294;118;922758;-74
2022/08/16 00:51:01;;;;;;;5.93;2.57;;;;;;;29.80;26.89;100179.98;447204;116;922776;-77
2022/08/16 00:52:04;;;;;;;3.18;2.30;;;;;;;29.79;26.85;100187.59;447364;118;922869;-74
2022/08/16 00:53:11;;;;;;;3.92;2.66;;;;;;;29.78;26.89;100183.13;444357;118;922792;-75
2022/08/16 00:54:14;;;;;;;4.97;2.29;;;;;;;29.77;26.90;100181.48;447306;118;922929;-76
2022/08/16 00:55:22;;;;;;;9.42;3.02;;;;;;;29.77;26.90;100177.89;446582;118;922980;-76
2022/08/16 00:56:30;;;;;;;2.72;2.31;;;;;;;29.78;26.90;100176.69;447285;116;923584;-74
2022/08/16 00:57:36;;;;;;;4.47;2.53;;;;;;;29.77;26.96;100180.70;444253;118;922747;-75
2022/08/16 00:58:44;;;;;;;5.15;2.73;;;;;;;29.77;26.93;100178.67;444132;118;922847;-75
2022/08/16 00:59:48;;;;;;;7.72;2.80;;;;;;;29.75;26.93;100183.86;447322;118;922717;-75
2022/08/16 01:00:54;;;;;;;7.91;3.12;;;;;;;29.74;26.94;100182.21;446037;116;923015;-73
2022/08/16 01:01:59;;;;;;;4.72;2.71;;;;;;;29.74;26.96;100175.77;447408;118;923267;-75
2022/08/16 01:03:07;;;;;;;4.59;3.06;;;;;;;29.73;26.96;100177.75;444217;118;923448;-75
2022/08/16 01:04:15;;;;;;;8.93;3.16;;;;;;;29.73;26.98;100176.94;446901;118;922857;-76
2022/08/16 01:05:37;;;;;;;4.66;2.78;;;;;;;29.72;26.98;100183.72;450694;115;922784;-75
2022/08/16 01:06:40;;;;;;;;;;;;;;;29.71;27.02;100184.91;465265;115;922263;-76
2022/08/16 01:07:45;;;;;;;5.08;2.98;;;;;;;29.68;27.00;100180.80;462470;114;922788;-75
2022/08/16 01:08:53;;;;;;;8.28;2.74;;;;;;;29.66;27.06;100187.97;461738;113;922792;-75
2022/08/16 01:09:57;;;;;;;5.51;3.26;;;;;;;29.64;27.08;100187.48;461458;115;922757;-77
2022/08/16 01:11:04;;;;;;;3.76;2.79;;;;;;;29.62;27.08;100181.39;461443;115;922704;-75
2022/08/16 01:12:10;;;;;;;4.19;2.99;;;;;;;29.60;27.09;100184.57;461456;115;922689;-75
2022/08/16 01:13:18;;;;;;;3.82;2.57;;;;;;;29.59;27.12;100180.12;462395;114;922891;-75
2022/08/16 01:14:28;;;;;;;6.11;2.66;;;;;;;29.59;27.09;100184.91;461425;115;922790;-75
2022/08/16 01:15:36;;;;;;;6.64;2.63;;;;;;;29.58;27.11;100186.91;455684;115;922731;-74
2022/08/16 01:16:44;;;;;;;7.23;2.79;;;;;;;29.58;27.11;100194.51;453457;116;922848;-76
2022/08/16 01:17:48;;;;;;;6.11;2.72;;;;;;;29.59;27.11;100182.11;453540;117;923235;-75
2022/08/16 01:19:00;;;;;;;4.43;2.13;;;;;;;29.58;27.13;100178.47;453446;116;922741;-75
2022/08/16 01:20:09;;;;;;;6.32;2.75;;;;;;;29.58;27.13;100188.89;453575;117;923566;-75
2022/08/16 01:21:51;;;;;;;6.37;2.39;;;;;;;29.58;27.13;100188.89;453194;115;923173;-74
2022/08/16 01:23:31;;;;;;;2.99;2.37;;;;;;;29.58;27.16;100191.70;453894;117;923461;-75
2022/08/16 01:24:45;;;;;;;9.79;2.39;;;;;;;29.57;27.20;100202.12;453156;117;922657;-74
2022/08/16 01:25:52;;;;;;;4.49;2.58;;;;;;;29.54;27.28;100199.20;453206;117;923368;-76
2022/08/16 01:27:21;;;;;;;3.39;2.30;;;;;;;29.53;27.25;100205.98;453236;116;922757;-74
2022/08/16 01:28:26;;;;;;;7.01;2.54;;;;;;;29.52;27.27;100207.15;453560;117;922752;-74
2022/08/16 01:29:35;;;;;;;4.26;1.99;;;;;;;29.51;27.30;100208.31;453894;115;922693;-74
2022/08/16 01:30:43;;;;;;;8.05;2.35;;;;;;;29.50;27.33;100207.49;457952;115;922712;-74
2022/08/16 01:31:48;;;;;;;4.86;2.58;;;;;;;29.50;27.35;100207.49;456595;115;922756;-75
2022/08/16 01:32:57;;;;;;;5.07;2.36;;;;;;;29.51;27.37;100205.50;450163;117;923013;-75
2022/08/16 01:34:03;;;;;;;4.66;2.59;;;;;;;29.51;27.40;100205.50;450604;116;923356;-74
2022/08/16 01:35:11;;;;;;;6.94;2.87;;;;;;;29.52;27.38;100212.77;457041;115;922832;-74
2022/08/16 01:36:17;;;;;;;6.34;2.83;;;;;;;29.51;27.42;100209.14;456845;114;923133;-75
2022/08/16 01:37:20;;;;;;;5.03;2.82;;;;;;;29.52;27.43;100201.53;457322;116;923517;-74
2022/08/16 01:38:27;;;;;;;4.17;2.59;;;;;;;29.52;27.43;100207.15;457319;115;922737;-75
2022/08/16 01:39:33;;;;;;;5.81;3.46;;;;;;;29.52;27.46;100210.78;457066;116;922705;-75
2022/08/16 01:40:38;;;;;;;5.43;3.22;;;;;;;29.52;27.47;100207.97;457113;116;922750;-74
2022/08/16 01:41:43;;;;;;;10.92;4.61;;;;;;;29.53;27.51;100209.62;457254;114;922680;-74
2022/08/16 01:42:48;;;;;;;6.81;4.50;;;;;;;29.54;27.46;100213.25;457111;116;923327;-75
2022/08/16 01:43:53;;;;;;;6.85;5.22;;;;;;;29.53;27.46;100211.60;449609;117;922964;-75
2022/08/16 01:44:59;;;;;;;7.26;5.62;;;;;;;29.52;27.49;100210.78;450534;116;923116;-75
2022/08/16 01:46:05;;;;;;;6.96;5.25;;;;;;;29.53;27.49;100217.22;457363;114;922644;-74
2022/08/16 01:47:10;;;;;;;7.82;5.73;;;;;;;29.53;27.47;100214.41;454850;116;922777;-76
2022/08/16 01:48:14;;;;;;;7.30;4.56;;;;;;;29.53;27.54;100212.42;457257;116;923191;-75
2022/08/16 01:49:22;;;;;;;8.79;4.98;;;;;;;29.54;27.48;100213.25;456714;115;930570;-74
2022/08/16 01:50:28;;;;;;;7.38;4.28;;;;;;;29.54;27.49;100205.64;457155;116;923243;-74
2022/08/16 01:51:33;;;;;;;5.66;3.62;;;;;;;29.54;27.55;100208.45;454808;115;922700;-74
2022/08/16 01:52:41;;;;;;;6.54;3.36;;;;;;;29.54;27.55;100213.25;449873;117;922798;-74
2022/08/16 01:53:47;;;;;;;4.66;2.98;;;;;;;29.54;27.57;100208.45;450500;116;922951;-73
2022/08/16 01:54:54;;;;;;;5.21;3.46;;;;;;;29.54;27.61;100199.20;456001;115;923215;-73
2022/08/16 01:55:58;;;;;;;5.11;2.81;;;;;;;29.54;27.59;100204.81;457229;114;922648;-73
2022/08/16 01:57:02;;;;;;;5.62;2.51;;;;;;;29.53;27.65;100195.57;457359;115;922678;-72
2022/08/16 01:58:05;;;;;;;6.15;2.96;;;;;;;29.53;27.72;100203.17;457182;115;923098;-74
2022/08/16 01:59:13;;;;;;;4.91;2.19;;;;;;;29.53;27.64;100204.00;456947;115;922745;-75
2022/08/16 02:00:19;;;;;;;8.09;2.27;;;;;;;29.54;27.64;100204.81;457169;116;922674;-75
2022/08/16 02:01:23;;;;;;;6.52;2.67;;;;;;;29.54;27.66;100199.20;457285;114;923333;-75
2022/08/16 02:02:28;;;;;;;4.38;2.38;;;;;;;29.53;27.65;100200.36;456937;115;922730;-75
2022/08/16 02:03:32;;;;;;;9.63;2.79;;;;;;;29.53;27.70;100198.38;457229;115;923527;-75
2022/08/16 02:04:35;;;;;;;5.84;2.24;;;;;;;29.52;27.67;100205.16;457247;115;930528;-74
2022/08/16 02:05:40;;;;;;;5.58;2.53;;;;;;;29.52;27.67;100207.15;459102;114;922667;-75
2022/08/16 02:06:46;;;;;;;9.21;1.98;;;;;;;29.51;27.74;100205.50;462820;114;922745;-73
2022/08/16 02:07:52;;;;;;;7.64;2.67;;;;;;;29.51;27.71;100203.52;462545;114;922750;-75
2022/08/16 02:08:56;;;;;;;5.22;2.34;;;;;;;29.50;27.77;100199.06;462473;114;923344;-74
2022/08/16 02:10:00;;;;;;;4.28;1.98;;;;;;;29.50;27.76;100201.08;462680;114;922658;-75
2022/08/16 02:11:10;;;;;;;4.32;1.96;;;;;;;29.50;27.78;100206.70;461689;114;922650;-76
2022/08/16 02:12:15;;;;;;;9.09;2.30;;;;;;;29.49;27.80;100205.05;462715;114;922959;-74
2022/08/16 02:13:20;;;;;;;5.36;2.15;;;;;;;29.47;27.80;100205.39;463507;114;922752;-75
2022/08/16 02:14:29;;;;;;;4.62;2.13;;;;;;;29.46;27.85;100203.75;462673;114;922736;-74
2022/08/16 02:15:34;;;;;;;6.82;2.53;;;;;;;29.45;27.90;100202.11;456104;114;922926;-74
2022/08/16 02:16:41;;;;;;;4.92;2.01;;;;;;;29.46;27.91;100202.92;453440;117;922775;-74
2022/08/16 02:17:46;;;;;;;3.30;1.94;;;;;;;29.45;27.96;100196.48;453489;117;922713;-74
2022/08/16 02:18:52;;;;;;;8.47;2.66;;;;;;;29.44;28.00;100203.30;453496;116;922698;-73
2022/08/16 02:19:56;;;;;;;2.96;1.97;;;;;;;29.42;27.95;100209.27;453601;117;922728;-73
2022/08/16 02:21:03;;;;;;;3.96;2.19;;;;;;;29.43;27.99;100204.47;453575;116;922749;-75
2022/08/16 02:22:09;;;;;;;4.27;2.29;;;;;;;29.41;28.00;100218.85;453544;117;922760;-74
2022/08/16 02:23:16;;;;;;;5.32;2.41;;;;;;;29.41;28.02;100203.98;444244;119;922689;-74
2022/08/16 02:24:21;;;;;;;5.76;2.32;;;;;;;29.40;28.06;100205.15;453471;117;922762;-74
2022/08/16 02:25:26;;;;;;;3.60;2.23;;;;;;;29.39;28.10;100207.13;444279;119;922869;-74
2022/08/16 02:26:32;;;;;;;3.80;2.33;;;;;;;29.39;28.10;100207.13;442267;119;922856;-74
2022/08/16 02:27:39;;;;;;;9.16;2.13;;;;;;;29.38;28.12;100204.70;445803;117;922850;-74
2022/08/16 02:28:43;;;;;;;3.12;2.07;;;;;;;29.38;28.13;100211.14;453555;117;923643;-74
2022/08/16 02:29:49;;;;;;;6.65;2.52;;;;;;;29.37;28.16;100209.49;446744;117;922910;-75
2022/08/16 02:30:56;;;;;;;4.76;2.07;;;;;;;29.36;28.19;100207.02;448335;115;923319;-75
2022/08/16 02:32:00;;;;;;;5.10;2.32;;;;;;;29.35;28.19;100203.39;457196;116;922700;-74
2022/08/16 02:33:06;;;;;;;6.95;2.59;;;;;;;29.34;28.25;100207.37;457016;115;922897;-73
2022/08/16 02:34:11;;;;;;;3.73;2.04;;;;;;;29.34;28.25;100215.80;452348;114;922754;-74
2022/08/16 02:35:16;;;;;;;3.55;2.32;;;;;;;29.34;28.24;100212.16;440016;120;922773;-73
2022/08/16 02:36:19;;;;;;;3.71;1.83;;;;;;;29.33;28.29;100213.35;440423;118;923209;-74
2022/08/16 02:37:24;;;;;;;5.44;2.29;;;;;;;29.32;28.33;100226.58;447013;118;931024;-74
2022/08/16 02:38:29;;;;;;;7.24;2.16;;;;;;;29.31;28.34;100222.09;447112;118;922685;-74
2022/08/16 02:39:34;;;;;;;5.15;2.13;;;;;;;29.31;28.39;100226.88;449308;117;923044;-74
2022/08/16 02:40:39;;;;;;;6.87;1.92;;;;;;;29.30;28.41;100226.06;449290;117;922654;-74
2022/08/16 02:41:47;;;;;;;3.23;1.79;;;;;;;29.29;28.42;100226.40;449398;116;922728;-75
2022/08/16 02:42:53;;;;;;;5.43;2.37;;;;;;;29.28;28.50;100231.19;449016;117;922741;-74
2022/08/16 02:43:57;;;;;;;5.39;2.38;;;;;;;29.28;28.54;100241.61;449448;118;922752;-75
2022/08/16 02:45:03;;;;;;;3.27;2.02;;;;;;;29.27;28.58;100259.65;449370;118;923416;-74
2022/08/16 02:46:09;;;;;;;3.68;2.08;;;;;;;29.26;28.62;100267.25;449304;116;930490;-75
2022/08/16 02:47:12;;;;;;;4.79;2.12;;;;;;;29.25;28.70;100257.18;449542;118;922657;-74
2022/08/16 02:48:17;;;;;;;5.11;2.56;;;;;;;29.25;28.68;100261.97;447178;118;922760;-74
2022/08/16 02:49:22;;;;;;;6.22;2.32;;;;;;;29.24;28.74;100263.95;447094;118;923033;-74
2022/08/16 02:50:28;;;;;;;4.30;2.53;;;;;;;29.23;28.72;100269.91;447116;118;922729;-74
2022/08/16 02:51:34;;;;;;;8.25;2.69;;;;;;;29.23;28.76;100267.93;447100;117;922774;-74
2022/08/16 02:52:38;;;;;;;6.86;2.54;;;;;;;29.22;28.79;100266.28;449372;118;922687;-75
2022/08/16 02:53:45;;;;;;;4.82;2.34;;;;;;;29.21;28.89;100269.46;449056;117;923740;-75
2022/08/16 02:54:49;;;;;;;4.56;2.56;;;;;;;29.21;28.85;100267.47;449342;118;922735;-74
2022/08/16 02:55:53;;;;;;;5.99;2.81;;;;;;;29.20;28.96;100260.21;448851;116;922828;-75
2022/08/16 02:56:57;;;;;;;5.06;2.47;;;;;;;29.19;29.00;100261.37;449550;118;922754;-74
2022/08/16 02:58:02;;;;;;;6.28;2.58;;;;;;;29.19;29.04;100264.19;449369;117;922790;-75
2022/08/16 02:59:05;;;;;;;3.71;2.07;;;;;;;29.18;29.09;100265.34;449520;118;922733;-74
2022/08/16 03:00:13;;;;;;;6.72;2.49;;;;;;;29.17;29.08;100263.70;448566;117;922733;-74
2022/08/16 03:01:22;;;;;;;3.43;2.05;;;;;;;29.16;29.13;100264.89;447321;116;922793;-74
2022/08/16 03:02:27;;;;;;;9.21;2.43;;;;;;;29.15;29.16;100266.05;448303;117;922784;-74
2022/08/16 03:03:33;;;;;;;3.29;2.01;;;;;;;29.15;29.17;100265.23;449138;117;923133;-75
2022/08/16 03:04:38;;;;;;;6.73;2.18;;;;;;;29.14;29.17;100266.39;447047;117;923309;-76
2022/08/16 03:05:46;;;;;;;8.01;2.33;;;;;;;29.13;29.18;100262.75;452044;116;922670;-75
2022/08/16 03:06:52;;;;;;;5.69;1.91;;;;;;;29.13;29.21;100261.94;454987;116;922693;-75
2022/08/16 03:07:58;;;;;;;6.82;2.77;;;;;;;29.11;29.23;100265.08;455010;116;923388;-75
2022/08/16 03:09:03;;;;;;;9.29;2.12;;;;;;;29.10;29.22;100263.47;455570;116;923167;-75
2022/08/16 03:10:11;;;;;;;3.01;2.03;;;;;;;29.11;29.27;100269.91;455453;116;930528;-76
2022/08/16 03:11:18;;;;;;;6.65;2.34;;;;;;;29.09;29.23;100269.41;453671;117;923064;-75
2022/08/16 03:12:23;;;;;;;8.38;2.42;;;;;;;29.08;29.24;100264.96;454219;116;922806;-75
2022/08/16 03:13:28;;;;;;;4.81;2.39;;;;;;;29.08;29.26;100268.59;452432;116;922756;-75
2022/08/16 03:14:33;;;;;;;6.58;2.17;;;;;;;29.06;29.23;100273.72;455525;116;922727;-76
2022/08/16 03:15:38;;;;;;;7.32;2.30;;;;;;;29.06;29.25;100270.09;456744;116;930496;-76
2022/08/16 03:16:41;;;;;;;7.37;2.66;;;;;;;29.04;29.25;100276.08;457314;114;922724;-76
2022/08/16 03:17:45;;;;;;;4.46;1.97;;;;;;;29.02;29.26;100273.61;450335;117;922879;-74
2022/08/16 03:18:50;;;;;;;5.54;2.46;;;;;;;29.02;29.29;100275.59;444024;117;922816;-75
2022/08/16 03:19:54;;;;;;;3.94;2.29;;;;;;;29.01;29.34;100276.75;440737;117;922773;-76
2022/08/16 03:20:59;;;;;;;9.17;2.52;;;;;;;29.00;29.36;100272.33;449935;115;922764;-76
2022/08/16 03:22:03;;;;;;;7.22;2.36;;;;;;;29.00;29.35;100275.13;457328;116;923132;-75
2022/08/16 03:23:07;;;;;;;6.14;2.34;;;;;;;28.98;29.32;100283.89;457222;115;922656;-75
2022/08/16 03:24:10;;;;;;;6.88;2.93;;;;;;;28.97;29.40;100281.42;457274;115;922721;-76
2022/08/16 03:25:16;;;;;;;10.75;2.84;;;;;;;28.96;29.40;100285.39;454777;116;922949;-76
2022/08/16 03:26:22;;;;;;;6.18;2.77;;;;;;;28.95;29.44;100284.56;456444;114;922875;-76
2022/08/16 03:27:29;;;;;;;6.29;2.29;;;;;;;28.94;29.44;100282.95;457135;116;922728;-75
2022/08/16 03:28:35;;;;;;;9.91;2.66;;;;;;;28.95;29.44;100286.55;457113;116;922865;-75
2022/08/16 03:29:38;;;;;;;7.22;3.19;;;;;;;28.94;29.47;100287.73;450433;117;922789;-75
2022/08/16 03:30:43;;;;;;;8.07;2.89;;;;;;;28.93;29.47;100289.72;447843;116;922776;-75
2022/08/16 03:31:47;;;;;;;7.05;3.05;;;;;;;28.93;29.48;100292.53;457383;116;922772;-74
2022/08/16 03:32:52;;;;;;;8.68;3.07;;;;;;;28.93;29.48;100294.52;456886;115;922895;-75
2022/08/16 03:33:57;;;;;;;7.76;3.19;;;;;;;28.92;29.57;100302.11;460640;113;922727;-76
2022/08/16 03:35:01;;;;;;;5.36;3.27;;;;;;;28.92;29.49;100295.67;466447;113;922629;-74
2022/08/16 03:36:06;;;;;;;7.04;2.92;;;;;;;28.93;29.49;100306.56;456992;116;923221;-75
2022/08/16 03:37:12;;;;;;;5.64;3.19;;;;;;;28.94;29.50;100307.39;458035;113;930515;-75
2022/08/16 03:38:17;;;;;;;8.47;2.86;;;;;;;28.93;29.53;100305.73;466364;113;923283;-74
2022/08/16 03:39:24;;;;;;;6.54;3.19;;;;;;;28.94;29.49;100308.21;463468;113;930515;-75
2022/08/16 03:40:28;;;;;;;10.34;4.03;;;;;;;28.94;29.52;100313.00;466391;113;922667;-74
2022/08/16 03:41:33;;;;;;;11.19;3.48;;;;;;;28.94;29.48;100313.00;465987;113;922907;-76
2022/08/16 03:42:39;;;;;;;8.93;3.71;;;;;;;28.94;29.48;100315.80;463329;113;923169;-75
2022/08/16 03:43:44;;;;;;;5.11;3.07;;;;;;;28.94;29.49;100322.25;463238;113;922675;-76
2022/08/16 03:44:49;;;;;;;8.29;3.90;;;;;;;28.94;29.46;100310.20;465429;113;922722;-73
2022/08/16 03:45:56;;;;;;;5.92;2.96;;;;;;;28.94;29.44;100316.63;466352;113;922646;-75
2022/08/16 03:47:01;;;;;;;8.35;3.62;;;;;;;28.95;29.43;100306.20;466178;113;923550;-74
2022/08/16 03:48:08;;;;;;;8.71;3.23;;;;;;;28.95;29.48;100311.81;466239;113;922728;-76
2022/08/16 03:49:11;;;;;;;5.83;3.24;;;;;;;28.95;29.44;100306.20;457152;116;922730;-75
2022/08/16 03:50:17;;;;;;;5.03;3.13;;;;;;;28.95;29.44;100303.39;457777;113;923450;-75
2022/08/16 03:51:22;;;;;;;6.43;3.16;;;;;;;28.96;29.44;100307.84;465289;113;922684;-75
2022/08/16 03:52:29;;;;;;;8.91;3.64;;;;;;;28.96;29.45;100308.67;466119;113;922905;-76
2022/08/16 03:53:36;;;;;;;8.55;3.11;;;;;;;28.96;29.46;100305.03;457045;116;923499;-75
2022/08/16 03:54:40;;;;;;;8.17;3.19;;;;;;;28.97;29.46;100298.27;458205;113;922778;-75
2022/08/16 03:55:45;;;;;;;14.22;3.41;;;;;;;28.97;29.49;100296.28;454486;116;922726;-74
2022/08/16 03:56:49;;;;;;;10.48;3.38;;;;;;;28.98;29.47;100306.34;457673;113;922792;-75
2022/08/16 03:57:54;;;;;;;11.11;3.36;;;;;;;28.99;29.47;100293.14;465354;113;922888;-76
2022/08/16 03:58:59;;;;;;;7.32;2.96;;;;;;;29.00;29.46;100303.20;466355;113;922813;-74
2022/08/16 04:00:12;;;;;;;5.22;2.81;;;;;;;29.01;29.44;100299.20;466090;113;922962;-77
2022/08/16 04:01:18;;;;;;;5.95;2.70;;;;;;;29.00;29.50;100300.40;454589;116;922846;-75
2022/08/16 04:02:22;;;;;;;4.81;2.81;;;;;;;29.01;29.44;100296.40;457802;113;922702;-75
2022/08/16 04:03:28;;;;;;;7.49;2.73;;;;;;;29.02;29.37;100298.88;465408;113;922672;-75
2022/08/16 04:04:34;;;;;;;8.14;3.15;;;;;;;29.02;29.33;100301.67;466428;113;923092;-76
2022/08/16 04:05:42;;;;;;;4.46;2.53;;;;;;;29.02;29.34;100301.67;458965;113;922758;-74
2022/08/16 04:06:47;;;;;;;11.63;2.45;;;;;;;29.03;29.25;100302.50;457100;115;923470;-75
2022/08/16 04:07:52;;;;;;;7.08;2.71;;;;;;;29.04;29.24;100301.34;457180;115;922697;-75
2022/08/16 04:08:56;;;;;;;7.08;2.96;;;;;;;29.04;29.22;100298.53;450271;117;922721;-75
2022/08/16 04:09:59;;;;;;;4.61;2.61;;;;;;;29.03;29.25;100300.52;450518;116;930603;-73
2022/08/16 04:11:04;;;;;;;4.21;2.82;;;;;;;29.03;29.34;100291.27;454855;114;922713;-74
2022/08/16 04:12:12;;;;;;;10.22;2.18;;;;;;;29.03;29.28;100288.47;457132;116;923014;-77
2022/08/16 04:13:17;;;;;;;6.03;2.34;;;;;;;29.02;29.27;100287.64;454872;116;922715;-74
2022/08/16 04:14:22;;;;;;;6.79;2.84;;;;;;;29.03;29.22;100282.84;454774;116;923510;-74
2022/08/16 04:15:29;;;;;;;6.25;2.17;;;;;;;29.03;29.21;100285.66;456168;115;922824;-74
2022/08/16 04:16:39;;;;;;;6.11;2.08;;;;;;;29.03;29.21;100286.48;455257;116;922775;-75
2022/08/16 04:17:44;;;;;;;8.34;2.33;;;;;;;29.03;29.20;100283.67;453946;116;923935;-76
2022/08/16 04:18:50;;;;;;;7.11;2.38;;;;;;;29.02;29.14;100276.41;457027;116;922679;-75
2022/08/16 04:19:53;;;;;;;9.04;2.29;;;;;;;29.03;29.12;100282.84;457224;116;922776;-75
2022/08/16 04:20:58;;;;;;;8.22;2.68;;;;;;;29.02;29.08;100282.03;447665;118;923017;-73
2022/08/16 04:22:02;;;;;;;7.39;2.39;;;;;;;29.02;29.11;100282.03;448228;116;922947;-74
2022/08/16 04:23:09;;;;;;;4.86;2.16;;;;;;;29.02;29.12;100273.61;456625;115;922790;-76
2022/08/16 04:24:14;;;;;;;5.71;2.22;;;;;;;29.02;29.14;100278.39;457177;116;922719;-76
2022/08/16 04:25:18;;;;;;;8.91;2.44;;;;;;;29.01;29.07;100280.38;457162;115;930549;-75
2022/08/16 04:26:22;;;;;;;6.38;2.06;;;;;;;29.01;28.99;100285.99;457102;114;925336;-74
2022/08/16 04:27:27;;;;;;;8.31;2.55;;;;;;;29.00;28.96;100275.13;457215;115;922680;-76
2022/08/16 04:28:32;;;;;;;7.56;2.51;;;;;;;29.00;28.97;100278.73;456978;115;930591;-75
2022/08/16 04:29:37;;;;;;;5.74;2.82;;;;;;;29.00;28.91;100275.92;455371;115;923179;-75
2022/08/16 04:30:43;;;;;;;9.35;3.09;;;;;;;28.99;28.85;100279.92;458082;115;922701;-76
2022/08/16 04:31:50;;;;;;;6.14;3.17;;;;;;;28.98;28.84;100283.06;456990;115;923061;-76
2022/08/16 04:32:55;;;;;;;6.38;3.81;;;;;;;28.95;28.84;100278.95;456583;115;922717;-76
2022/08/16 04:34:01;;;;;;;7.76;3.73;;;;;;;28.94;28.76;100282.95;453633;114;922940;-76
2022/08/16 04:35:06;;;;;;;13.74;4.71;;;;;;;28.95;28.75;100283.73;449494;117;922702;-76
2022/08/16 04:36:13;;;;;;;9.96;5.63;;;;;;;28.93;28.69;100281.30;448719;116;922774;-76
2022/08/16 04:37:18;;;;;;;10.32;6.90;;;;;;;28.92;28.66;100279.66;448763;117;922980;-77
2022/08/16 04:38:24;;;;;;;11.85;6.88;;;;;;;28.93;28.62;100277.67;449113;117;923437;-75
2022/08/16 04:39:30;;;;;;;10.23;7.54;;;;;;;28.93;28.55;100286.09;449438;118;922784;-76
2022/08/16 04:40:35;;;;;;;11.76;9.15;;;;;;;28.92;28.49;100276.84;447235;118;922699;-76
2022/08/16 04:41:39;;;;;;;12.70;9.09;;;;;;;28.91;28.44;100283.62;449535;116;922693;-75
2022/08/16 04:42:44;;;;;;;10.36;8.01;;;;;;;28.92;28.46;100284.45;439985;120;922747;-75
2022/08/16 04:43:48;;;;;;;14.73;7.99;;;;;;;28.91;28.35;100289.23;440514;118;922797;-76
2022/08/16 04:44:54;;;;;;;13.49;8.79;;;;;;;28.92;28.32;100290.06;439803;120;922800;-75
2022/08/16 04:46:01;;;;;;;15.32;9.39;;;;;;;28.92;28.28;100284.45;440894;118;922741;-76
2022/08/16 04:47:07;;;;;;;14.21;9.06;;;;;;;28.91;28.22;100289.23;449057;118;923183;-76
2022/08/16 04:48:12;;;;;;;10.37;8.46;;;;;;;28.92;28.17;100290.06;447124;118;923808;-75
2022/08/16 04:49:21;;;;;;;17.61;8.85;;;;;;;28.92;28.06;100292.86;446840;118;922719;-76
2022/08/16 04:50:28;;;;;;;11.11;8.18;;;;;;;28.92;27.98;100290.88;449309;118;922816;-74
2022/08/16 04:51:47;;;;;;;11.46;7.72;;;;;;;28.92;27.93;100290.88;448305;117;923112;-77
2022/08/16 04:52:52;;;;;;;15.03;7.99;;;;;;;28.91;27.86;100292.04;448684;117;922684;-75
2022/08/16 04:53:57;;;;;;;11.84;7.87;;;;;;;28.91;27.80;100294.02;449345;118;922683;-76
2022/08/16 04:55:01;;;;;;;17.43;7.02;;;;;;;28.91;27.72;100296.83;449525;117;922921;-76
2022/08/16 04:56:06;;;;;;;16.93;8.06;;;;;;;28.90;27.71;100292.38;439850;120;922737;-75
2022/08/16 04:57:11;;;;;;;14.62;6.75;;;;;;;28.91;27.71;100292.04;440804;118;922735;-75
2022/08/16 04:58:15;;;;;;;11.38;6.22;;;;;;;28.90;27.69;100290.39;449423;118;922734;-77
2022/08/16 04:59:20;;;;;;;10.64;5.94;;;;;;;28.92;27.72;100293.69;447074;118;922691;-76
2022/08/16 05:00:32;;;;;;;11.01;6.62;;;;;;;28.92;27.78;100290.88;449351;118;922854;-75
2022/08/16 05:01:38;;;;;;;13.07;6.10;;;;;;;28.92;27.68;100290.06;447211;117;922760;-76
2022/08/16 05:02:43;;;;;;;11.05;6.12;;;;;;;28.93;27.64;100286.91;447107;118;922680;-76
2022/08/16 05:03:48;;;;;;;8.28;5.58;;;;;;;28.92;27.66;100296.50;439895;120;922844;-75